Maimiti — PBIJ — position and weather

sailwx.info

Track history (hours):
 
Tides and Currents Weather Stations Pressure Air Temp Water Temp Dewpoint Dewpoint Depression Visibility Wind Speed Wind Dir Waves Ship Positions

Maimiti

Last reported at 2015-Jul-03 16:33 UTC. Time now 2015-Jul-03 17:24 UTC.
Position N 51°20' E 003°49'.

Length 35 m; draft 7 m.

Type: Tug. MMSI: 244850959.

Date/timePositionNaut miles runAvg speedWind from/ knotsBaromVisibWave heightAir tempDewpointWater temp
2015-Jul-03 16:33N 51°20' E 003°49'0 0.0
2015-Jul-03 14:33N 51°20' E 003°49'0 0.0
2015-Jul-03 13:33N 51°20' E 003°49'0 0.1
2015-Jul-03 12:34N 51°20' E 003°49'0 0.2
2015-Jul-03 11:33N 51°20' E 003°49'0 0.2
2015-Jul-03 10:09N 51°20' E 003°49'0 0.0
2015-Jul-03 09:33N 51°20' E 003°49'0 0.0
2015-Jul-03 08:33N 51°20' E 003°49'0 0.0
2015-Jul-03 07:33N 51°20' E 003°49'0 0.0
2015-Jul-03 06:33N 51°20' E 003°49'0 0.0
2015-Jul-03 05:30N 51°20' E 003°49'0 0.0
2015-Jul-03 04:33N 51°20' E 003°49'0 0.0
2015-Jul-03 03:33N 51°20' E 003°49'0 0.0
2015-Jul-03 02:33N 51°20' E 003°49'0 0.0
2015-Jul-03 01:33N 51°20' E 003°49'0 0.0
2015-Jul-03 00:33N 51°20' E 003°49'1 0.6
2015-Jul-02 23:33N 51°20' E 003°49'4 4.4
2015-Jul-02 22:32N 51°15' E 003°50'6 5.8
2015-Jul-02 21:34N 51°10' E 003°47'0 0.3
2015-Jul-02 20:34N 51°10' E 003°47'0 0.0
2015-Jul-02 19:34N 51°10' E 003°47'1 0.7
2015-Jul-02 18:33N 51°09' E 003°47'3 3.5
2015-Jul-02 17:33N 51°12' E 003°48'5 4.9
2015-Jul-02 16:33N 51°17' E 003°50'2 1.7
2015-Jul-02 15:33N 51°19' E 003°50'1 1.0
2015-Jul-02 14:29N 51°20' E 003°49'1 0.9
2015-Jul-02 13:33N 51°20' E 003°49'0 0.2
2015-Jul-02 12:32N 51°20' E 003°49'0 0.0
2015-Jul-02 11:20N 51°20' E 003°49'0 0.0
2015-Jul-02 10:33N 51°20' E 003°49'0 0.0
2015-Jul-02 09:33N 51°20' E 003°49'0 0.0
2015-Jul-02 08:07N 51°20' E 003°49'0 0.0
2015-Jul-02 07:18N 51°20' E 003°49'1 1.5
2015-Jul-02 06:33N 51°21' E 003°48'8 7.6
2015-Jul-02 05:33N 51°27' E 003°41'1 1.5
2015-Jul-02 04:33N 51°27' E 003°43'0 0.0
2015-Jul-02 03:33N 51°27' E 003°43'0 0.0
2015-Jul-02 02:33N 51°27' E 003°43'0 0.0
2015-Jul-02 01:33N 51°27' E 003°43'0 0.0
2015-Jul-02 00:33N 51°27' E 003°43'0 0.0
2015-Jul-01 23:33N 51°27' E 003°43'0 0.0
2015-Jul-01 22:33N 51°27' E 003°43'0 0.0
2015-Jul-01 21:33N 51°27' E 003°43'0 0.0
2015-Jul-01 20:33N 51°27' E 003°43'0 0.0
2015-Jul-01 19:33N 51°27' E 003°43'0 0.0
2015-Jul-01 18:33N 51°27' E 003°43'0 0.0
2015-Jul-01 17:33N 51°27' E 003°43'0 0.0
2015-Jul-01 16:33N 51°27' E 003°43'0 0.0
2015-Jul-01 15:27N 51°27' E 003°43'0 0.0
2015-Jul-01 14:33N 51°27' E 003°43'0 0.0
2015-Jul-01 13:33N 51°27' E 003°43'0 0.0
2015-Jul-01 12:33N 51°27' E 003°43'0 0.0
2015-Jul-01 11:34N 51°27' E 003°43'1 0.6
2015-Jul-01 10:33N 51°27' E 003°43'2 1.5
2015-Jul-01 09:33N 51°27' E 003°40'8 7.3
2015-Jul-01 08:30N 51°25' E 003°29'10 7.4
2015-Jul-01 07:09N 51°24' E 003°13'4 6.1
2015-Jul-01 06:32N 51°24' E 003°07'6 6.5
2015-Jul-01 05:33N 51°22' E 002°57'7 7.3
2015-Jul-01 04:33N 51°22' E 002°45'7 6.7
2015-Jul-01 03:29N 51°29' E 002°42'8 7.9
2015-Jul-01 02:30N 51°36' E 002°44'22 7.4
2015-Jun-30 23:33N 51°58' E 002°36'48 9.6
2015-Jun-30 18:32N 52°46' E 002°39'10 9.9
2015-Jun-30 17:29N 52°56' E 002°39'9 8.9
2015-Jun-30 16:25N 53°06' E 002°41'8 8.1
2015-Jun-30 15:26N 53°13' E 002°44'7 7.8
2015-Jun-30 14:33N 53°20' E 002°47'29 7.2
2015-Jun-30 10:26N 53°46' E 002°23'10 8.3
2015-Jun-30 09:11N 53°54' E 002°12'  
Track history (hours):
 
Tides and Currents Weather Stations Pressure Air Temp Water Temp Dewpoint Dewpoint Depression Visibility Wind Speed Wind Dir Waves Ship Positions

Maimiti

Last reported at 2015-Jul-03 16:33 UTC. Time now 2015-Jul-03 17:24 UTC.
Position N 51°20' E 003°49'.

Length 35 m; draft 7 m.

Type: Tug. MMSI: 244850959.

Date/timePositionNaut miles runAvg speedWind from/ knotsBaromVisibWave heightAir tempDewpointWater temp
2015-Jul-03 16:33N 51°20' E 003°49'0 0.0
2015-Jul-03 14:33N 51°20' E 003°49'0 0.0
2015-Jul-03 13:33N 51°20' E 003°49'0 0.1
2015-Jul-03 12:34N 51°20' E 003°49'0 0.2
2015-Jul-03 11:33N 51°20' E 003°49'0 0.2
2015-Jul-03 10:09N 51°20' E 003°49'0 0.0
2015-Jul-03 09:33N 51°20' E 003°49'0 0.0
2015-Jul-03 08:33N 51°20' E 003°49'0 0.0
2015-Jul-03 07:33N 51°20' E 003°49'0 0.0
2015-Jul-03 06:33N 51°20' E 003°49'0 0.0
2015-Jul-03 05:30N 51°20' E 003°49'0 0.0
2015-Jul-03 04:33N 51°20' E 003°49'0 0.0
2015-Jul-03 03:33N 51°20' E 003°49'0 0.0
2015-Jul-03 02:33N 51°20' E 003°49'0 0.0
2015-Jul-03 01:33N 51°20' E 003°49'0 0.0
2015-Jul-03 00:33N 51°20' E 003°49'1 0.6
2015-Jul-02 23:33N 51°20' E 003°49'4 4.4
2015-Jul-02 22:32N 51°15' E 003°50'6 5.8
2015-Jul-02 21:34N 51°10' E 003°47'0 0.3
2015-Jul-02 20:34N 51°10' E 003°47'0 0.0
2015-Jul-02 19:34N 51°10' E 003°47'1 0.7
2015-Jul-02 18:33N 51°09' E 003°47'3 3.5
2015-Jul-02 17:33N 51°12' E 003°48'5 4.9
2015-Jul-02 16:33N 51°17' E 003°50'2 1.7
2015-Jul-02 15:33N 51°19' E 003°50'1 1.0
2015-Jul-02 14:29N 51°20' E 003°49'1 0.9
2015-Jul-02 13:33N 51°20' E 003°49'0 0.2
2015-Jul-02 12:32N 51°20' E 003°49'0 0.0
2015-Jul-02 11:20N 51°20' E 003°49'0 0.0
2015-Jul-02 10:33N 51°20' E 003°49'0 0.0
2015-Jul-02 09:33N 51°20' E 003°49'0 0.0
2015-Jul-02 08:07N 51°20' E 003°49'0 0.0
2015-Jul-02 07:18N 51°20' E 003°49'1 1.5
2015-Jul-02 06:33N 51°21' E 003°48'8 7.6
2015-Jul-02 05:33N 51°27' E 003°41'1 1.5
2015-Jul-02 04:33N 51°27' E 003°43'0 0.0
2015-Jul-02 03:33N 51°27' E 003°43'0 0.0
2015-Jul-02 02:33N 51°27' E 003°43'0 0.0
2015-Jul-02 01:33N 51°27' E 003°43'0 0.0
2015-Jul-02 00:33N 51°27' E 003°43'0 0.0
2015-Jul-01 23:33N 51°27' E 003°43'0 0.0
2015-Jul-01 22:33N 51°27' E 003°43'0 0.0
2015-Jul-01 21:33N 51°27' E 003°43'0 0.0
2015-Jul-01 20:33N 51°27' E 003°43'0 0.0
2015-Jul-01 19:33N 51°27' E 003°43'0 0.0
2015-Jul-01 18:33N 51°27' E 003°43'0 0.0
2015-Jul-01 17:33N 51°27' E 003°43'0 0.0
2015-Jul-01 16:33N 51°27' E 003°43'0 0.0
2015-Jul-01 15:27N 51°27' E 003°43'0 0.0
2015-Jul-01 14:33N 51°27' E 003°43'0 0.0
2015-Jul-01 13:33N 51°27' E 003°43'0 0.0
2015-Jul-01 12:33N 51°27' E 003°43'0 0.0
2015-Jul-01 11:34N 51°27' E 003°43'1 0.6
2015-Jul-01 10:33N 51°27' E 003°43'2 1.5
2015-Jul-01 09:33N 51°27' E 003°40'8 7.3
2015-Jul-01 08:30N 51°25' E 003°29'10 7.4
2015-Jul-01 07:09N 51°24' E 003°13'4 6.1
2015-Jul-01 06:32N 51°24' E 003°07'6 6.5
2015-Jul-01 05:33N 51°22' E 002°57'7 7.3
2015-Jul-01 04:33N 51°22' E 002°45'7 6.7
2015-Jul-01 03:29N 51°29' E 002°42'8 7.9
2015-Jul-01 02:30N 51°36' E 002°44'22 7.4
2015-Jun-30 23:33N 51°58' E 002°36'48 9.6
2015-Jun-30 18:32N 52°46' E 002°39'10 9.9
2015-Jun-30 17:29N 52°56' E 002°39'9 8.9
2015-Jun-30 16:25N 53°06' E 002°41'8 8.1
2015-Jun-30 15:26N 53°13' E 002°44'7 7.8
2015-Jun-30 14:33N 53°20' E 002°47'29 7.2
2015-Jun-30 10:26N 53°46' E 002°23'10 8.3
2015-Jun-30 09:11N 53°54' E 002°12'  

Dump ship's entire track history